Time;durP1;ratioP1;P1;durP2;ratioP2;P2;SDS_P1;SDS_P2;PMS_P1;PMS_P2;Temp;Humidity;BMP_temperature;BMP_pressure;BME280_temperature;BME280_humidity;BME280_pressure;Samples;Min_cycle;Max_cycle;Signal;HPM_P1;HPM_P2
2022/09/21 05:03:27;;;;;;;16.88;9.27;;;5.10;99.90;;;;;;6335265;22;20019;-79
2022/09/21 05:05:58;;;;;;;13.73;8.82;;;5.10;99.90;;;;;;6348899;22;20132;-80
2022/09/21 05:11:17;;;;;;;17.25;10.43;;;5.10;99.90;;;;;;6319949;22;20003;-77
2022/09/21 05:13:43;;;;;;;21.42;10.50;;;5.10;99.90;;;;;;6321760;22;20198;-77
2022/09/21 05:16:08;;;;;;;20.25;10.63;;;5.20;99.90;;;;;;6319699;22;20003;-78
2022/09/21 05:18:37;;;;;;;23.02;10.95;;;5.30;99.90;;;;;;6320411;22;20002;-79
2022/09/21 05:21:20;;;;;;;21.60;11.02;;;5.30;99.90;;;;;;6348847;22;20306;-79
2022/09/21 05:23:51;;;;;;;20.73;11.65;;;5.30;99.90;;;;;;6292504;22;20304;-78
2022/09/21 05:26:16;;;;;;;24.92;12.55;;;5.30;99.90;;;;;;6293323;22;20009;-78
2022/09/21 05:28:42;;;;;;;24.52;12.65;;;5.30;99.90;;;;;;6346826;22;19991;-78
2022/09/21 05:31:41;;;;;;;26.98;11.75;;;5.40;99.90;;;;;;6294198;22;20003;-79
2022/09/21 05:34:31;;;;;;;26.00;12.45;;;5.50;99.90;;;;;;6347362;22;20014;-77
2022/09/21 05:37:50;;;;;;;23.73;12.15;;;5.60;99.90;;;;;;6301130;22;20002;-78
2022/09/21 05:40:17;;;;;;;22.02;10.68;;;5.70;99.90;;;;;;6323456;22;19994;-78
2022/09/21 05:42:46;;;;;;;21.52;10.65;;;5.80;99.90;;;;;;6346819;22;19987;-77
2022/09/21 05:45:59;;;;;;;23.25;11.25;;;5.90;99.90;;;;;;6320346;22;20088;-78
2022/09/21 05:49:09;;;;;;;19.17;9.82;;;6.00;99.90;;;;;;6346984;22;20301;-78
2022/09/21 05:52:15;;;;;;;17.20;9.02;;;6.10;99.90;;;;;;6292185;22;20006;-77
2022/09/21 05:55:18;;;;;;;23.35;10.75;;;6.20;99.90;;;;;;6346633;22;19998;-78
2022/09/21 05:58:06;;;;;;;25.95;11.52;;;6.20;99.90;;;;;;6345700;22;20003;-78
2022/09/21 06:00:53;;;;;;;28.92;13.40;;;6.30;99.90;;;;;;6347355;22;19999;-77
2022/09/21 06:03:35;;;;;;;22.73;11.35;;;6.40;99.90;;;;;;6339305;22;20007;-76
2022/09/21 06:06:06;;;;;;;20.95;10.40;;;6.50;99.90;;;;;;6345201;22;19998;-77
2022/09/21 06:13:30;;;;;;;19.45;9.05;;;6.60;99.90;;;;;;6346468;22;20006;-76
2022/09/21 06:16:21;;;;;;;17.30;8.68;;;6.70;99.90;;;;;;6344852;22;20017;-76
2022/09/21 06:18:50;;;;;;;17.33;9.02;;;6.80;99.90;;;;;;6347246;22;19998;-78
2022/09/21 06:21:15;;;;;;;15.70;8.68;;;6.80;99.90;;;;;;6348052;22;20286;-77
2022/09/21 06:23:53;;;;;;;15.25;8.45;;;7.00;99.90;;;;;;6346482;22;20003;-78
2022/09/21 06:26:28;;;;;;;15.48;7.85;;;7.00;99.90;;;;;;6347208;22;19998;-78
2022/09/21 06:28:54;;;;;;;19.63;9.20;;;7.10;99.90;;;;;;6344909;22;20189;-78
2022/09/21 06:31:20;;;;;;;13.98;8.20;;;7.10;99.90;;;;;;6346835;22;19998;-76
2022/09/21 06:33:45;;;;;;;19.58;8.80;;;7.20;99.90;;;;;;6346288;22;20009;-76
2022/09/21 06:44:07;;;;;;;15.18;8.90;;;7.50;99.90;;;;;;6220756;23;20047;-76
2022/09/21 06:46:33;;;;;;;15.63;7.75;;;7.70;99.90;;;;;;6220997;23;20004;-76
2022/09/21 06:49:26;;;;;;;16.30;8.90;;;7.70;99.90;;;;;;6220437;23;20026;-76
2022/09/21 06:52:09;;;;;;;13.25;7.57;;;7.80;99.90;;;;;;6265090;22;20014;-77
2022/09/21 06:54:35;;;;;;;15.88;8.52;;;8.00;99.90;;;;;;6346841;22;20030;-77
2022/09/21 06:57:02;;;;;;;13.90;7.43;;;8.00;99.90;;;;;;6345718;22;20105;-77
2022/09/21 06:59:42;;;;;;;12.73;7.85;;;8.00;99.90;;;;;;6329641;22;20028;-78
2022/09/21 07:02:15;;;;;;;19.40;8.57;;;8.20;99.90;;;;;;6355017;22;20063;-78
2022/09/21 07:04:41;;;;;;;20.00;7.70;;;8.30;99.90;;;;;;6376863;22;20021;-79
2022/09/21 07:07:07;;;;;;;15.57;8.07;;;8.40;99.90;;;;;;6350437;22;20009;-76
2022/09/21 07:09:39;;;;;;;13.98;7.65;;;8.50;99.90;;;;;;6380946;22;20010;-78
2022/09/21 07:12:06;;;;;;;14.43;6.75;;;8.60;99.90;;;;;;6351199;22;20070;-78
2022/09/21 07:14:34;;;;;;;11.57;6.65;;;8.70;99.90;;;;;;6350710;22;20236;-77
2022/09/21 07:17:03;;;;;;;12.68;6.57;;;8.90;99.90;;;;;;6323831;22;20006;-78
2022/09/21 07:19:31;;;;;;;15.38;6.60;;;8.90;99.90;;;;;;6324668;22;20155;-78
2022/09/21 07:21:56;;;;;;;12.63;6.45;;;8.90;99.90;;;;;;6349703;22;20006;-76
2022/09/21 07:24:22;;;;;;;13.50;7.15;;;9.00;99.90;;;;;;6350067;22;20280;-78
2022/09/21 07:26:48;;;;;;;11.70;6.50;;;9.10;99.90;;;;;;6377276;22;20230;-78
2022/09/21 07:35:55;;;;;;;12.00;6.25;;;9.50;99.90;;;;;;6377348;22;20004;-78
2022/09/21 07:38:22;;;;;;;12.25;6.65;;;9.60;99.90;;;;;;6348287;22;20062;-76
2022/09/21 07:40:48;;;;;;;11.30;5.97;;;9.60;99.90;;;;;;6349128;22;20065;-76
2022/09/21 07:43:17;;;;;;;10.02;5.90;;;9.60;99.90;;;;;;6377909;22;20040;-75
2022/09/21 07:45:50;;;;;;;21.35;14.32;;;9.80;99.90;;;;;;6376958;22;20003;-76
2022/09/21 07:48:19;;;;;;;16.08;9.82;;;9.90;99.90;;;;;;6349738;22;20006;-76
2022/09/21 07:50:48;;;;;;;17.40;8.93;;;10.10;99.90;;;;;;6376819;22;19999;-76
2022/09/21 07:53:15;;;;;;;11.20;6.45;;;10.10;99.90;;;;;;6376864;22;20006;-77
2022/09/21 07:55:45;;;;;;;11.13;6.45;;;10.30;99.90;;;;;;6348967;22;20319;-77
2022/09/21 08:00:55;;;;;;;11.00;5.80;;;10.60;99.90;;;;;;6377799;22;20088;-76
2022/09/21 08:03:20;;;;;;;11.57;6.07;;;10.60;99.90;;;;;;6376782;22;20082;-76
2022/09/21 08:05:46;;;;;;;12.75;6.00;;;10.60;99.90;;;;;;6349330;22;20002;-76
2022/09/21 08:08:18;;;;;;;10.10;5.88;;;10.80;99.90;;;;;;6377020;22;20017;-73
2022/09/21 08:10:44;;;;;;;13.18;6.30;;;10.90;99.90;;;;;;6348869;22;20505;-77
2022/09/21 08:13:12;;;;;;;12.00;6.00;;;10.90;99.90;;;;;;6377444;22;20052;-77
2022/09/21 08:15:38;;;;;;;11.80;5.65;;;10.90;99.90;;;;;;6377148;22;20207;-76
2022/09/21 08:18:07;;;;;;;11.02;5.43;;;11.10;99.90;;;;;;6377275;22;19986;-76
2022/09/21 08:20:33;;;;;;;10.43;5.75;;;11.10;99.90;;;;;;6350915;22;20002;-77
2022/09/21 08:22:59;;;;;;;12.05;5.25;;;11.10;99.90;;;;;;6387597;22;20103;-76
2022/09/21 08:26:01;;;;;;;9.45;5.18;;;11.20;99.90;;;;;;6233978;23;19997;-74
2022/09/21 08:28:35;;;;;;;11.25;5.53;;;11.30;99.90;;;;;;6235145;22;20015;-77
2022/09/21 08:31:26;;;;;;;9.55;5.72;;;11.40;99.90;;;;;;6216670;23;20015;-77
2022/09/21 08:33:53;;;;;;;12.93;6.00;;;11.60;99.90;;;;;;6234368;22;20000;-77
2022/09/21 08:36:19;;;;;;;10.15;6.22;;;11.60;99.90;;;;;;6168715;23;20326;-77
2022/09/21 08:38:48;;;;;;;11.48;6.07;;;11.70;99.90;;;;;;6160090;23;20021;-76
2022/09/21 08:41:16;;;;;;;11.55;4.82;;;11.70;99.90;;;;;;6161117;23;20195;-76
2022/09/21 08:43:55;;;;;;;10.15;5.03;;;11.90;99.90;;;;;;6159703;23;20354;-76
2022/09/21 08:46:33;;;;;;;9.93;4.82;;;11.90;99.90;;;;;;6134833;23;20214;-77
2022/09/21 08:52:23;;;;;;;9.18;4.50;;;12.20;99.90;;;;;;6159380;23;20009;-76
2022/09/21 08:58:46;;;;;;;10.48;4.53;;;12.50;99.90;;;;;;6158871;23;20059;-76
2022/09/21 09:01:38;;;;;;;9.48;4.05;;;12.50;99.90;;;;;;6180173;22;20140;-77
2022/09/21 09:08:18;;;;;;;6.88;4.00;;;12.60;99.90;;;;;;6282177;22;20047;-76
2022/09/21 09:14:41;;;;;;;7.13;3.38;;;12.60;99.90;;;;;;6283010;22;20004;-76
2022/09/21 09:17:47;;;;;;;6.22;3.63;;;12.60;99.90;;;;;;6281135;22;20063;-77
2022/09/21 09:20:35;;;;;;;6.22;2.80;;;12.80;99.90;;;;;;6282919;22;20010;-75
2022/09/21 09:23:20;;;;;;;6.47;3.10;;;13.10;99.90;;;;;;6282116;22;20162;-77
2022/09/21 09:26:41;;;;;;;8.05;2.60;;;13.20;99.90;;;;;;6282862;22;20018;-76
2022/09/21 09:30:00;;;;;;;7.10;2.22;;;13.50;99.90;;;;;;6281938;22;20007;-77
2022/09/21 09:33:03;;;;;;;4.70;1.95;;;13.70;99.90;;;;;;6282324;22;20254;-77
2022/09/21 09:35:44;;;;;;;5.53;2.15;;;13.70;99.90;;;;;;6282817;22;20357;-76
2022/09/21 09:38:28;;;;;;;5.90;2.60;;;13.70;99.90;;;;;;6283067;22;20058;-76
2022/09/21 09:41:32;;;;;;;5.70;2.35;;;13.80;99.90;;;;;;6282371;22;20000;-77
2022/09/21 09:48:25;;;;;;;5.93;2.40;;;14.00;99.90;;;;;;6220572;23;20046;-75
2022/09/21 09:50:51;;;;;;;6.13;2.10;;;14.30;99.90;;;;;;6220732;23;20096;-77
2022/09/21 09:53:30;;;;;;;3.80;1.70;;;14.50;99.90;;;;;;6221178;23;20000;-76
2022/09/21 09:55:59;;;;;;;3.63;1.50;;;14.50;99.70;;;;;;6196081;23;20005;-78
2022/09/21 09:58:49;;;;;;;4.72;2.15;;;14.60;99.30;;;;;;6196161;23;20160;-78
2022/09/21 10:01:35;;;;;;;4.38;2.20;;;14.60;98.90;;;;;;6221067;23;20298;-76
2022/09/21 10:04:33;;;;;;;3.92;1.42;;;14.60;98.90;;;;;;6199368;23;20023;-76
2022/09/21 10:10:48;;;;;;;4.43;1.23;;;15.00;97.70;;;;;;6220205;23;20086;-76
2022/09/21 10:13:28;;;;;;;4.38;1.40;;;15.20;97.70;;;;;;6220678;23;20314;-76
2022/09/21 10:15:58;;;;;;;3.45;1.00;;;15.40;96.80;;;;;;6220702;23;20001;-76
2022/09/21 10:18:43;;;;;;;5.07;1.20;;;15.60;96.60;;;;;;6220810;23;20008;-77
2022/09/21 10:21:23;;;;;;;4.13;1.10;;;15.80;96.10;;;;;;6220604;23;20063;-78
2022/09/21 10:24:05;;;;;;;2.88;1.13;;;16.10;94.80;;;;;;6257224;22;20007;-77
2022/09/21 10:26:46;;;;;;;2.83;0.82;;;15.90;94.60;;;;;;6284454;22;20000;-76
2022/09/21 10:29:21;;;;;;;3.22;1.02;;;16.00;94.10;;;;;;6284221;22;20019;-76
2022/09/21 10:32:18;;;;;;;2.95;1.10;;;16.20;93.40;;;;;;6256957;22;20050;-77
2022/09/21 10:35:10;;;;;;;4.50;1.50;;;16.40;93.00;;;;;;6283659;22;20003;-76
2022/09/21 10:37:40;;;;;;;3.03;0.80;;;16.30;93.00;;;;;;6279763;22;20000;-77
2022/09/21 10:40:18;;;;;;;3.22;0.50;;;16.30;91.70;;;;;;6284259;22;20073;-76
2022/09/21 10:42:46;;;;;;;2.22;0.47;;;16.40;91.70;;;;;;6283485;22;20352;-74
2022/09/21 10:45:21;;;;;;;1.60;0.50;;;16.60;91.10;;;;;;6283854;22;20004;-74
2022/09/21 10:48:06;;;;;;;1.17;0.38;;;16.80;90.10;;;;;;6284332;22;20042;-78
2022/09/21 10:50:58;;;;;;;2.65;0.60;;;16.60;90.40;;;;;;6257895;22;20082;-77
2022/09/21 10:53:30;;;;;;;1.65;0.52;;;16.70;90.10;;;;;;6250726;22;20355;-77
2022/09/21 10:56:03;;;;;;;2.38;0.50;;;16.70;89.50;;;;;;6283909;22;20007;-79
2022/09/21 10:58:30;;;;;;;1.42;0.40;;;17.00;89.10;;;;;;6284133;22;20007;-78
2022/09/21 11:01:15;;;;;;;2.20;0.60;;;17.60;88.00;;;;;;6257077;22;20008;-77
2022/09/21 11:03:41;;;;;;;1.63;0.50;;;17.90;85.80;;;;;;6257132;22;20015;-76
2022/09/21 11:06:36;;;;;;;1.85;0.40;;;18.00;84.10;;;;;;6283866;22;19999;-76
2022/09/21 11:09:08;;;;;;;2.83;0.40;;;18.00;83.90;;;;;;6283973;22;20007;-75
2022/09/21 11:12:06;;;;;;;2.80;0.70;;;18.90;81.80;;;;;;6284721;22;20197;-70
2022/09/21 11:14:59;;;;;;;2.83;0.52;;;19.20;80.50;;;;;;6190468;23;20093;-78
2022/09/21 11:17:34;;;;;;;3.72;0.68;;;19.20;81.20;;;;;;6284148;22;20012;-78
2022/09/21 11:20:12;;;;;;;3.33;0.80;;;19.10;81.10;;;;;;6231504;22;20008;-79
2022/09/21 11:23:02;;;;;;;5.55;1.00;;;19.00;82.50;;;;;;6284213;22;20301;-75
2022/09/21 11:25:29;;;;;;;3.20;0.82;;;18.60;84.20;;;;;;6256662;22;20201;-75
2022/09/21 11:28:05;;;;;;;1.45;0.88;;;18.50;84.50;;;;;;6283845;22;19999;-75
2022/09/21 11:31:00;;;;;;;3.17;0.60;;;18.40;84.10;;;;;;6284068;22;20290;-75
2022/09/21 11:33:41;;;;;;;3.53;0.90;;;18.10;82.10;;;;;;6250039;22;20007;-76
2022/09/21 11:36:07;;;;;;;3.60;0.50;;;17.90;82.00;;;;;;6283612;22;20256;-75
2022/09/21 11:38:50;;;;;;;3.08;0.60;;;17.70;82.70;;;;;;6284033;22;20050;-76
2022/09/21 11:41:48;;;;;;;2.13;0.30;;;17.60;83.40;;;;;;6284323;22;20237;-77
2022/09/21 11:44:41;;;;;;;2.13;0.55;;;17.80;82.90;;;;;;6284001;22;20012;-76
2022/09/21 11:47:21;;;;;;;1.60;0.40;;;19.60;79.80;;;;;;6283637;22;20011;-76
2022/09/21 11:50:09;;;;;;;1.15;0.20;;;22.00;74.80;;;;;;6256749;22;20190;-77
2022/09/21 11:52:41;;;;;;;0.82;0.30;;;24.00;68.20;;;;;;6257108;22;20024;-77
2022/09/21 11:55:22;;;;;;;1.85;0.30;;;24.10;64.40;;;;;;6283211;22;20004;-76
2022/09/21 11:58:09;;;;;;;6.53;0.40;;;24.00;65.20;;;;;;6256653;22;20094;-75
2022/09/21 12:01:10;;;;;;;1.80;0.40;;;25.20;62.00;;;;;;6284354;22;20014;-76
2022/09/21 12:03:45;;;;;;;2.60;0.40;;;25.70;61.40;;;;;;6283280;22;20011;-75
2022/09/21 12:06:17;;;;;;;2.13;0.30;;;25.60;61.10;;;;;;6284268;22;20007;-77
2022/09/21 12:08:48;;;;;;;1.45;0.40;;;26.30;59.50;;;;;;6256489;22;20052;-71
2022/09/21 12:11:23;;;;;;;2.13;0.22;;;25.90;59.30;;;;;;6283062;22;20019;-74
2022/09/21 12:13:57;;;;;;;1.30;0.47;;;25.10;60.20;;;;;;6283577;22;20000;-77
2022/09/21 12:16:29;;;;;;;1.65;0.30;;;23.90;60.50;;;;;;6231352;22;20004;-76
2022/09/21 12:19:23;;;;;;;1.95;0.47;;;22.70;62.30;;;;;;6282456;22;20003;-74
2022/09/21 12:21:55;;;;;;;2.47;0.47;;;23.90;62.20;;;;;;6256999;22;20000;-74
2022/09/21 12:24:29;;;;;;;1.55;0.45;;;25.80;60.80;;;;;;6284641;22;20003;-76
2022/09/21 12:26:59;;;;;;;1.05;0.20;;;27.80;57.10;;;;;;6282783;22;20197;-76
2022/09/21 12:29:36;;;;;;;1.73;0.50;;;28.80;54.20;;;;;;6256464;22;20016;-76
2022/09/21 12:32:32;;;;;;;3.33;0.40;;;28.40;54.30;;;;;;6256456;22;20213;-75
2022/09/21 12:35:03;;;;;;;1.25;0.32;;;29.30;54.00;;;;;;6255580;22;20201;-75
2022/09/21 12:37:41;;;;;;;2.28;0.50;;;30.40;52.00;;;;;;6256536;22;20320;-76
2022/09/21 12:40:23;;;;;;;1.45;0.35;;;31.10;50.40;;;;;;6283013;22;20050;-74
2022/09/21 12:43:07;;;;;;;2.92;0.60;;;31.40;49.90;;;;;;6283087;22;20002;-77
2022/09/21 12:45:47;;;;;;;4.00;0.45;;;32.90;49.60;;;;;;6283834;22;20007;-79
2022/09/21 12:48:30;;;;;;;2.10;0.32;;;33.70;48.90;;;;;;6232641;22;20087;-77
2022/09/21 12:51:27;;;;;;;2.33;0.30;;;33.00;48.20;;;;;;6282879;22;20004;-76
2022/09/21 12:53:57;;;;;;;1.53;0.40;;;33.30;47.40;;;;;;6283042;22;20071;-75
2022/09/21 12:56:41;;;;;;;2.55;0.65;;;33.30;47.60;;;;;;6283425;22;20026;-76
2022/09/21 12:59:16;;;;;;;3.60;0.57;;;31.50;47.80;;;;;;6282336;22;20007;-76
2022/09/21 13:02:10;;;;;;;4.75;0.75;;;29.90;50.60;;;;;;6283104;22;20027;-76
2022/09/21 13:04:49;;;;;;;3.63;0.65;;;28.20;51.30;;;;;;6282544;22;20016;-76
2022/09/21 13:07:32;;;;;;;3.05;0.30;;;26.10;53.90;;;;;;6231569;22;20007;-78
2022/09/21 13:10:14;;;;;;;4.35;0.50;;;24.10;55.10;;;;;;6282896;22;20086;-76
2022/09/21 13:12:43;;;;;;;2.05;0.40;;;23.00;58.10;;;;;;6285333;22;20000;-78
2022/09/21 13:15:26;;;;;;;3.70;0.40;;;23.30;58.10;;;;;;6288261;22;19992;-76
2022/09/21 13:18:15;;;;;;;1.58;0.40;;;26.10;54.50;;;;;;6259760;22;20027;-71
2022/09/21 13:20:41;;;;;;;1.67;0.28;;;28.60;52.80;;;;;;6300018;22;19995;-73
2022/09/21 13:23:45;;;;;;;2.80;0.30;;;30.90;49.70;;;;;;6274316;22;20002;-76
2022/09/21 13:26:31;;;;;;;3.17;1.50;;;32.90;48.10;;;;;;6286930;22;20182;-77
2022/09/21 13:28:57;;;;;;;1.40;0.50;;;33.30;46.10;;;;;;6285204;22;20008;-75
2022/09/21 13:31:56;;;;;;;1.75;0.45;;;32.70;46.10;;;;;;6284983;22;20305;-78
2022/09/21 13:34:41;;;;;;;2.42;0.40;;;30.70;46.90;;;;;;6284960;22;20193;-77
2022/09/21 13:37:19;;;;;;;2.05;0.40;;;29.20;48.50;;;;;;6284064;22;20003;-77
2022/09/21 13:39:50;;;;;;;2.78;1.25;;;30.80;48.60;;;;;;6284888;22;20000;-74
2022/09/21 13:42:31;;;;;;;2.00;0.82;;;32.40;48.00;;;;;;6285649;22;20278;-75
2022/09/21 13:45:13;;;;;;;1.58;0.60;;;33.20;45.30;;;;;;6284217;22;20066;-75
2022/09/21 13:47:41;;;;;;;2.05;0.50;;;34.40;45.10;;;;;;6285120;22;20022;-76
2022/09/21 13:50:18;;;;;;;1.13;0.38;;;34.60;43.50;;;;;;6284104;22;20340;-76
2022/09/21 13:52:50;;;;;;;1.90;0.30;;;34.70;43.30;;;;;;6285518;22;20003;-80
2022/09/21 13:55:29;;;;;;;1.05;0.20;;;35.60;42.30;;;;;;6284490;22;20067;-77
2022/09/21 13:57:57;;;;;;;1.40;0.30;;;34.70;43.40;;;;;;6284893;22;20091;-78
2022/09/21 14:00:34;;;;;;;1.20;0.40;;;34.90;43.10;;;;;;6286381;22;20061;-78
2022/09/21 14:03:15;;;;;;;3.33;0.50;;;35.40;42.20;;;;;;6285430;22;20011;-76
2022/09/21 14:05:45;;;;;;;1.65;0.45;;;35.30;42.70;;;;;;6259495;22;20015;-77
2022/09/21 14:08:13;;;;;;;1.58;0.40;;;35.60;42.20;;;;;;6286637;22;20023;-77
2022/09/21 14:10:49;;;;;;;1.40;0.40;;;34.30;42.80;;;;;;6286213;22;20004;-75
2022/09/21 14:13:32;;;;;;;1.65;0.30;;;34.50;42.40;;;;;;6286048;22;20303;-77
2022/09/21 14:16:32;;;;;;;1.27;0.20;;;34.70;42.10;;;;;;6285463;22;20015;-71
2022/09/21 14:18:59;;;;;;;0.88;0.30;;;35.20;42.10;;;;;;6248795;22;20011;-71
2022/09/21 14:21:26;;;;;;;4.78;0.88;;;36.10;41.30;;;;;;6285936;22;20007;-74
2022/09/21 14:24:21;;;;;;;2.53;0.40;;;36.00;41.00;;;;;;6284629;22;19999;-70
2022/09/21 14:27:00;;;;;;;1.00;0.20;;;36.30;41.20;;;;;;6239964;22;20003;-72
2022/09/21 14:29:51;;;;;;;0.98;0.30;;;36.40;41.20;;;;;;6285657;22;20035;-70
2022/09/21 14:32:22;;;;;;;1.30;0.30;;;36.60;41.10;;;;;;6284964;22;20055;-70
2022/09/21 14:34:50;;;;;;;1.85;0.30;;;36.70;40.80;;;;;;6283809;22;20189;-73
2022/09/21 14:37:48;;;;;;;2.53;0.50;;;36.00;40.40;;;;;;6285345;22;19988;-71
2022/09/21 14:40:24;;;;;;;3.42;2.95;;;33.60;42.00;;;;;;6267630;22;20015;-71
2022/09/21 14:42:52;;;;;;;1.42;0.38;;;33.40;42.90;;;;;;6284767;22;20045;-71
2022/09/21 14:45:29;;;;;;;2.30;0.38;;;33.10;42.80;;;;;;6284749;22;19996;-71
2022/09/21 14:48:07;;;;;;;2.45;0.70;;;33.80;42.00;;;;;;6284800;22;20066;-73
2022/09/21 14:50:41;;;;;;;1.75;0.32;;;34.50;42.20;;;;;;6286090;22;20011;-71
2022/09/21 14:53:15;;;;;;;0.82;0.30;;;34.90;41.80;;;;;;6285536;22;20006;-72
2022/09/21 14:56:07;;;;;;;1.88;0.40;;;35.90;41.40;;;;;;6286677;22;20008;-72
2022/09/21 14:58:57;;;;;;;1.23;0.30;;;35.70;39.80;;;;;;6286248;22;20000;-73
2022/09/21 15:01:32;;;;;;;2.05;0.43;;;34.50;40.30;;;;;;6286792;22;20007;-72
2022/09/21 15:04:07;;;;;;;1.52;0.47;;;33.80;40.90;;;;;;6271369;22;20019;-72
2022/09/21 15:13:30;;;;;;;1.58;0.45;;;35.60;39.20;;;;;;6286285;22;20193;-70
2022/09/21 15:16:06;;;;;;;1.27;0.30;;;35.10;39.30;;;;;;6263667;22;20012;-71
2022/09/21 15:18:35;;;;;;;3.95;1.10;;;35.70;39.30;;;;;;6311253;22;20000;-71
2022/09/21 15:21:03;;;;;;;1.50;0.30;;;35.80;39.40;;;;;;6286030;22;20027;-72
2022/09/21 15:23:38;;;;;;;2.35;0.80;;;36.10;41.30;;;;;;6310841;22;20023;-72
2022/09/21 15:26:09;;;;;;;1.42;0.50;;;35.20;39.50;;;;;;6286131;22;20011;-72
2022/09/21 15:28:47;;;;;;;1.83;0.30;;;35.10;41.10;;;;;;6286375;22;20217;-71
2022/09/21 15:31:13;;;;;;;;;;;35.30;39.80;;;;;;6285340;22;20023;-71
2022/09/21 15:33:41;;;;;;;1.17;0.30;;;35.20;39.80;;;;;;6285089;22;19919;-72
2022/09/21 15:36:08;;;;;;;2.13;0.95;;;35.80;40.30;;;;;;6285674;22;19996;-72
2022/09/21 15:38:37;;;;;;;5.85;0.80;;;34.50;38.90;;;;;;6286011;22;19999;-72
2022/09/21 15:41:04;;;;;;;0.93;0.25;;;33.20;40.70;;;;;;6285347;22;20038;-69
2022/09/21 15:43:33;;;;;;;2.22;0.40;;;32.80;41.60;;;;;;6285883;22;19988;-71
2022/09/21 15:46:03;;;;;;;1.88;0.20;;;33.30;39.50;;;;;;6285227;22;20011;-71
2022/09/21 15:48:34;;;;;;;1.95;0.30;;;33.80;39.10;;;;;;6286552;22;20142;-70
2022/09/21 15:51:28;;;;;;;1.40;0.32;;;33.30;40.10;;;;;;6285375;22;20201;-72
2022/09/21 15:54:19;;;;;;;1.05;0.30;;;33.70;40.40;;;;;;6285425;22;20000;-72
2022/09/21 15:56:46;;;;;;;0.82;0.30;;;34.40;39.00;;;;;;6299978;22;20030;-72
2022/09/21 15:59:19;;;;;;;1.15;0.50;;;34.50;39.80;;;;;;6285340;22;20438;-72
2022/09/21 16:01:49;;;;;;;1.58;0.30;;;35.10;39.30;;;;;;6286293;22;19999;-71
2022/09/21 16:04:26;;;;;;;1.00;0.30;;;34.50;39.80;;;;;;6285597;22;20074;-73
2022/09/21 16:07:03;;;;;;;1.15;0.38;;;34.50;39.60;;;;;;6259051;22;20167;-71
2022/09/21 16:09:39;;;;;;;1.23;0.40;;;33.50;39.20;;;;;;6285817;22;20165;-72
2022/09/21 16:12:42;;;;;;;1.00;0.30;;;33.30;39.00;;;;;;6258314;22;20224;-72
2022/09/21 16:15:17;;;;;;;1.00;0.30;;;32.80;39.60;;;;;;6285609;22;20030;-72
2022/09/21 16:18:00;;;;;;;0.55;0.20;;;33.10;40.70;;;;;;6259012;22;20004;-70
2022/09/21 16:20:46;;;;;;;1.17;0.20;;;32.80;39.70;;;;;;6285848;22;20046;-72
2022/09/21 16:23:16;;;;;;;0.93;0.20;;;32.30;41.20;;;;;;6258439;22;19999;-71
2022/09/21 16:25:42;;;;;;;0.95;0.25;;;31.70;41.60;;;;;;6285776;22;20008;-71
2022/09/21 16:28:16;;;;;;;1.00;0.30;;;30.70;41.40;;;;;;6284951;22;20177;-70
2022/09/21 16:30:52;;;;;;;1.55;0.40;;;29.00;44.10;;;;;;6285684;22;20011;-70
2022/09/21 16:33:41;;;;;;;3.03;0.40;;;27.20;46.40;;;;;;6284916;22;20297;-71
2022/09/21 16:36:16;;;;;;;2.53;0.55;;;25.50;47.60;;;;;;6284654;22;20000;-70
2022/09/21 16:38:43;;;;;;;0.98;0.30;;;24.10;50.90;;;;;;6285276;22;20000;-71
2022/09/21 16:41:09;;;;;;;2.17;0.38;;;23.10;51.60;;;;;;6285248;22;20004;-72
2022/09/21 16:43:42;;;;;;;1.60;0.50;;;22.40;55.10;;;;;;6258370;22;20015;-70
2022/09/21 16:46:09;;;;;;;1.50;0.40;;;21.60;54.20;;;;;;6283173;22;20305;-72
2022/09/21 16:48:35;;;;;;;0.95;0.30;;;20.90;55.70;;;;;;6285884;22;20329;-71
2022/09/21 16:51:01;;;;;;;1.52;0.50;;;20.60;58.30;;;;;;6258473;22;20014;-72
2022/09/21 16:53:27;;;;;;;3.70;0.60;;;20.40;58.50;;;;;;6258006;22;20054;-72
2022/09/21 16:55:53;;;;;;;1.35;0.50;;;20.00;57.00;;;;;;6285210;22;20274;-74
2022/09/21 16:58:20;;;;;;;1.45;0.32;;;19.50;58.20;;;;;;6285323;22;20067;-75
2022/09/21 17:00:50;;;;;;;3.88;1.10;;;19.30;59.20;;;;;;6285652;22;20004;-71
2022/09/21 17:03:16;;;;;;;4.97;0.90;;;19.10;59.80;;;;;;6283564;22;20259;-71
2022/09/21 17:05:45;;;;;;;2.30;0.55;;;18.90;60.30;;;;;;6283833;22;20007;-74
2022/09/21 17:08:11;;;;;;;2.30;0.60;;;18.70;61.70;;;;;;6283702;22;19988;-72
2022/09/21 17:10:41;;;;;;;1.95;0.45;;;18.40;61.30;;;;;;6257154;22;20006;-71
2022/09/21 17:13:08;;;;;;;1.27;0.50;;;18.10;61.80;;;;;;6283788;22;20041;-73
2022/09/21 17:15:35;;;;;;;1.48;0.35;;;17.90;64.00;;;;;;6284021;22;19996;-74
2022/09/21 17:18:02;;;;;;;;;;;17.70;63.50;;;;;;6253799;23;20016;-70
2022/09/21 17:20:41;;;;;;;4.85;0.57;;;17.60;64.70;;;;;;6253490;23;19899;-71
2022/09/21 17:23:07;;;;;;;3.25;0.82;;;17.40;64.10;;;;;;6252516;23;20106;-71
2022/09/21 17:25:34;;;;;;;3.40;1.60;;;17.20;65.60;;;;;;6226516;23;20008;-72
2022/09/21 17:28:02;;;;;;;3.22;1.65;;;17.00;66.40;;;;;;6252444;23;20175;-72
2022/09/21 17:30:29;;;;;;;3.15;1.15;;;16.80;66.10;;;;;;6253180;23;20282;-78
2022/09/21 17:32:57;;;;;;;2.28;0.85;;;16.60;66.90;;;;;;6226653;23;19999;-83
2022/09/21 17:35:37;;;;;;;;;;;16.40;67.60;;;;;;6254522;23;20020;-75
2022/09/21 17:38:04;;;;;;;1.65;0.50;;;16.10;68.50;;;;;;6252584;23;19906;-74
2022/09/21 17:40:30;;;;;;;3.05;0.80;;;16.00;70.50;;;;;;6253014;23;20004;-76
2022/09/21 17:43:14;;;;;;;5.22;2.42;;;15.90;69.30;;;;;;6226986;23;20214;-76
2022/09/21 17:46:13;;;;;;;2.20;1.13;;;15.80;70.30;;;;;;6253852;23;20012;-77
2022/09/21 17:48:39;;;;;;;3.78;0.85;;;15.70;70.30;;;;;;6252726;23;20125;-75
2022/09/21 17:51:06;;;;;;;2.25;0.68;;;15.60;71.10;;;;;;6253508;23;20067;-77
2022/09/21 17:53:33;;;;;;;3.15;0.90;;;15.50;71.00;;;;;;6227754;23;20015;-75
2022/09/21 17:56:17;;;;;;;4.90;1.45;;;15.30;72.30;;;;;;6227311;23;20326;-75
2022/09/21 17:59:03;;;;;;;5.88;1.00;;;15.30;72.80;;;;;;6254319;23;20383;-74
2022/09/21 18:01:38;;;;;;;3.00;0.98;;;15.10;73.00;;;;;;6263970;23;20004;-74
2022/09/21 18:04:05;;;;;;;5.95;2.65;;;15.00;73.90;;;;;;6224252;23;20059;-76
2022/09/21 18:06:32;;;;;;;11.73;5.63;;;14.90;75.40;;;;;;6253001;23;20189;-74
2022/09/21 18:08:59;;;;;;;9.95;5.35;;;14.80;75.60;;;;;;6229274;23;20008;-75
2022/09/21 18:11:24;;;;;;;15.10;7.25;;;14.70;76.50;;;;;;6225796;23;20094;-74
2022/09/21 18:13:59;;;;;;;8.13;4.30;;;14.50;76.40;;;;;;6225582;23;20028;-75
2022/09/21 18:16:42;;;;;;;7.38;3.80;;;14.40;77.30;;;;;;6224745;23;20008;-75
2022/09/21 18:19:44;;;;;;;5.40;2.88;;;14.30;78.00;;;;;;6224986;23;20020;-74
2022/09/21 18:22:22;;;;;;;4.75;2.70;;;14.10;78.80;;;;;;6224187;23;20000;-75
2022/09/21 18:24:49;;;;;;;5.93;3.33;;;14.00;78.80;;;;;;6225090;23;20004;-77
2022/09/21 18:27:18;;;;;;;5.97;3.15;;;13.80;81.00;;;;;;6224252;23;20179;-75
2022/09/21 18:29:44;;;;;;;4.70;2.50;;;13.80;81.70;;;;;;6224578;23;20249;-74
2022/09/21 18:32:29;;;;;;;4.95;1.98;;;13.70;81.20;;;;;;6248035;23;20160;-75
2022/09/21 18:35:17;;;;;;;4.63;2.20;;;13.70;81.80;;;;;;6224722;23;20008;-74
2022/09/21 18:38:14;;;;;;;4.78;2.25;;;13.60;81.20;;;;;;6222701;23;20235;-75
2022/09/21 18:41:04;;;;;;;5.10;2.28;;;13.60;81.90;;;;;;6247798;23;20024;-74
2022/09/21 18:43:51;;;;;;;6.75;2.72;;;13.50;82.20;;;;;;6222769;23;20337;-75
2022/09/21 18:46:33;;;;;;;5.40;2.83;;;13.40;82.60;;;;;;6222597;23;20019;-75
2022/09/21 18:49:14;;;;;;;5.55;3.03;;;13.30;83.90;;;;;;6224317;23;20052;-75
2022/09/21 18:51:51;;;;;;;6.05;2.70;;;13.20;83.80;;;;;;6224129;23;20001;-76
2022/09/21 18:54:21;;;;;;;6.60;2.40;;;13.10;85.10;;;;;;6248009;23;20005;-74
2022/09/21 18:56:48;;;;;;;5.53;2.70;;;13.00;84.40;;;;;;6224389;23;20060;-75
2022/09/21 18:59:14;;;;;;;4.38;2.83;;;12.90;85.80;;;;;;6223858;23;20015;-76
2022/09/21 19:01:42;;;;;;;6.70;2.92;;;12.80;85.30;;;;;;6224356;23;20048;-75
2022/09/21 19:04:08;;;;;;;6.25;3.20;;;12.80;85.40;;;;;;6247291;23;20208;-76
2022/09/21 19:07:01;;;;;;;6.35;3.88;;;12.80;84.60;;;;;;6224023;23;20001;-75
2022/09/21 19:09:51;;;;;;;13.80;6.88;;;12.70;86.10;;;;;;6223679;23;20059;-75
2022/09/21 19:12:41;;;;;;;6.65;3.70;;;12.60;86.10;;;;;;6223956;23;20001;-75
2022/09/21 19:15:15;;;;;;;5.82;3.20;;;12.60;87.50;;;;;;6224149;23;20071;-74
2022/09/21 19:18:00;;;;;;;6.78;3.13;;;12.50;87.30;;;;;;6248102;23;20227;-74
2022/09/21 19:20:38;;;;;;;5.88;3.05;;;12.50;87.70;;;;;;6223456;23;20004;-75
2022/09/21 19:23:15;;;;;;;5.70;3.47;;;12.40;88.10;;;;;;6223692;23;20126;-76
2022/09/21 19:26:07;;;;;;;7.05;3.40;;;12.40;89.10;;;;;;6224989;23;20020;-77
2022/09/21 19:28:56;;;;;;;12.23;7.47;;;12.20;89.00;;;;;;6248740;23;20015;-77
2022/09/21 19:31:22;;;;;;;10.38;6.15;;;12.10;89.60;;;;;;6223777;23;20004;-77
2022/09/21 19:33:48;;;;;;;8.27;4.72;;;11.90;90.20;;;;;;6248314;23;20286;-76